sensor_id;sensor_type;location;lat;lon;timestamp;P1;durP1;ratioP1;P2;durP2;ratioP2
38312;SDS011;24114;52.260;6.714;2023-03-01T00:01:31;12.23;;;10.95;;
38312;SDS011;24114;52.260;6.714;2023-03-01T00:03:59;12.60;;;11.40;;
38312;SDS011;24114;52.260;6.714;2023-03-01T00:06:28;12.02;;;10.82;;
38312;SDS011;24114;52.260;6.714;2023-03-01T00:08:57;11.90;;;10.65;;
38312;SDS011;24114;52.260;6.714;2023-03-01T00:11:25;11.37;;;10.27;;
38312;SDS011;24114;52.260;6.714;2023-03-01T00:13:56;12.77;;;11.18;;
38312;SDS011;24114;52.260;6.714;2023-03-01T00:16:26;12.15;;;10.63;;
38312;SDS011;24114;52.260;6.714;2023-03-01T00:18:56;12.52;;;11.32;;
38312;SDS011;24114;52.260;6.714;2023-03-01T00:21:25;12.30;;;11.00;;
38312;SDS011;24114;52.260;6.714;2023-03-01T00:23:55;12.18;;;10.98;;
38312;SDS011;24114;52.260;6.714;2023-03-01T00:26:23;12.55;;;11.27;;
38312;SDS011;24114;52.260;6.714;2023-03-01T00:28:51;14.00;;;12.05;;
38312;SDS011;24114;52.260;6.714;2023-03-01T00:31:20;14.82;;;12.32;;
38312;SDS011;24114;52.260;6.714;2023-03-01T00:33:52;12.98;;;11.57;;
38312;SDS011;24114;52.260;6.714;2023-03-01T00:36:23;14.32;;;11.82;;
38312;SDS011;24114;52.260;6.714;2023-03-01T00:38:52;15.27;;;11.80;;
38312;SDS011;24114;52.260;6.714;2023-03-01T00:41:22;13.93;;;11.80;;
38312;SDS011;24114;52.260;6.714;2023-03-01T00:43:50;12.45;;;11.15;;
38312;SDS011;24114;52.260;6.714;2023-03-01T00:46:18;14.13;;;11.90;;
38312;SDS011;24114;52.260;6.714;2023-03-01T00:48:46;13.18;;;11.85;;
38312;SDS011;24114;52.260;6.714;2023-03-01T00:51:15;13.55;;;12.15;;
38312;SDS011;24114;52.260;6.714;2023-03-01T00:53:44;13.50;;;12.10;;
38312;SDS011;24114;52.260;6.714;2023-03-01T00:56:13;12.60;;;11.30;;
38312;SDS011;24114;52.260;6.714;2023-03-01T00:58:43;12.75;;;11.45;;
38312;SDS011;24114;52.260;6.714;2023-03-01T01:01:11;13.13;;;10.93;;
38312;SDS011;24114;52.260;6.714;2023-03-01T01:03:45;12.20;;;10.98;;
38312;SDS011;24114;52.260;6.714;2023-03-01T01:06:14;11.90;;;10.70;;
38312;SDS011;24114;52.260;6.714;2023-03-01T01:08:43;11.95;;;10.75;;
38312;SDS011;24114;52.260;6.714;2023-03-01T01:11:11;11.82;;;10.68;;
38312;SDS011;24114;52.260;6.714;2023-03-01T01:13:39;12.15;;;10.95;;
38312;SDS011;24114;52.260;6.714;2023-03-01T01:16:09;11.68;;;10.57;;
38312;SDS011;24114;52.260;6.714;2023-03-01T01:18:37;11.73;;;10.52;;
38312;SDS011;24114;52.260;6.714;2023-03-01T01:21:05;11.57;;;10.52;;
38312;SDS011;24114;52.260;6.714;2023-03-01T01:23:34;11.88;;;10.45;;
38312;SDS011;24114;52.260;6.714;2023-03-01T01:26:06;11.63;;;10.52;;
38312;SDS011;24114;52.260;6.714;2023-03-01T01:28:34;11.98;;;10.88;;
38312;SDS011;24114;52.260;6.714;2023-03-01T01:31:02;11.73;;;10.53;;
38312;SDS011;24114;52.260;6.714;2023-03-01T01:33:32;11.73;;;10.60;;
38312;SDS011;24114;52.260;6.714;2023-03-01T01:36:00;10.97;;;9.93;;
38312;SDS011;24114;52.260;6.714;2023-03-01T01:38:28;11.30;;;10.20;;
38312;SDS011;24114;52.260;6.714;2023-03-01T01:40:55;11.27;;;10.10;;
38312;SDS011;24114;52.260;6.714;2023-03-01T01:43:24;10.73;;;9.63;;
38312;SDS011;24114;52.260;6.714;2023-03-01T01:45:53;10.38;;;9.35;;
38312;SDS011;24114;52.260;6.714;2023-03-01T01:48:24;10.07;;;9.07;;
38312;SDS011;24114;52.260;6.714;2023-03-01T01:51:09;10.05;;;9.00;;
38312;SDS011;24114;52.260;6.714;2023-03-01T01:53:40;10.07;;;8.95;;
38312;SDS011;24114;52.260;6.714;2023-03-01T01:56:09;9.07;;;8.20;;
38312;SDS011;24114;52.260;6.714;2023-03-01T01:58:38;9.30;;;8.07;;
38312;SDS011;24114;52.260;6.714;2023-03-01T02:01:06;9.13;;;8.23;;
38312;SDS011;24114;52.260;6.714;2023-03-01T02:03:34;9.48;;;8.50;;
38312;SDS011;24114;52.260;6.714;2023-03-01T02:06:12;9.43;;;8.52;;
38312;SDS011;24114;52.260;6.714;2023-03-01T02:08:44;8.77;;;7.97;;
38312;SDS011;24114;52.260;6.714;2023-03-01T02:11:13;9.15;;;8.15;;
38312;SDS011;24114;52.260;6.714;2023-03-01T02:13:41;8.93;;;8.07;;
38312;SDS011;24114;52.260;6.714;2023-03-01T02:16:10;8.07;;;7.35;;
38312;SDS011;24114;52.260;6.714;2023-03-01T02:18:40;8.43;;;7.63;;
38312;SDS011;24114;52.260;6.714;2023-03-01T02:21:13;8.50;;;7.70;;
38312;SDS011;24114;52.260;6.714;2023-03-01T02:23:48;9.15;;;8.25;;
38312;SDS011;24114;52.260;6.714;2023-03-01T02:26:18;9.50;;;8.13;;
38312;SDS011;24114;52.260;6.714;2023-03-01T02:28:49;9.10;;;7.88;;
38312;SDS011;24114;52.260;6.714;2023-03-01T02:31:18;8.82;;;7.93;;
38312;SDS011;24114;52.260;6.714;2023-03-01T02:34:05;8.45;;;7.65;;
38312;SDS011;24114;52.260;6.714;2023-03-01T02:36:34;8.07;;;7.40;;
38312;SDS011;24114;52.260;6.714;2023-03-01T02:39:04;7.97;;;7.27;;
38312;SDS011;24114;52.260;6.714;2023-03-01T02:41:34;8.23;;;7.43;;
38312;SDS011;24114;52.260;6.714;2023-03-01T02:44:05;8.38;;;7.57;;
38312;SDS011;24114;52.260;6.714;2023-03-01T02:46:41;8.10;;;7.40;;
38312;SDS011;24114;52.260;6.714;2023-03-01T02:49:17;8.77;;;7.90;;
38312;SDS011;24114;52.260;6.714;2023-03-01T02:51:50;10.27;;;8.10;;
38312;SDS011;24114;52.260;6.714;2023-03-01T02:54:33;9.55;;;7.65;;
38312;SDS011;24114;52.260;6.714;2023-03-01T02:57:04;9.05;;;8.15;;
38312;SDS011;24114;52.260;6.714;2023-03-01T02:59:35;8.48;;;7.68;;
38312;SDS011;24114;52.260;6.714;2023-03-01T03:02:05;9.30;;;8.40;;
38312;SDS011;24114;52.260;6.714;2023-03-01T03:04:33;9.10;;;8.20;;
38312;SDS011;24114;52.260;6.714;2023-03-01T03:07:01;9.98;;;8.88;;
38312;SDS011;24114;52.260;6.714;2023-03-01T03:09:29;9.43;;;8.52;;
38312;SDS011;24114;52.260;6.714;2023-03-01T03:11:57;9.30;;;8.40;;
38312;SDS011;24114;52.260;6.714;2023-03-01T03:14:24;8.93;;;8.02;;
38312;SDS011;24114;52.260;6.714;2023-03-01T03:16:54;9.17;;;8.27;;
38312;SDS011;24114;52.260;6.714;2023-03-01T03:19:21;9.27;;;8.38;;
38312;SDS011;24114;52.260;6.714;2023-03-01T03:21:49;9.73;;;8.73;;
38312;SDS011;24114;52.260;6.714;2023-03-01T03:24:17;9.73;;;8.73;;
38312;SDS011;24114;52.260;6.714;2023-03-01T03:26:45;9.00;;;8.20;;
38312;SDS011;24114;52.260;6.714;2023-03-01T03:29:13;9.25;;;8.38;;
38312;SDS011;24114;52.260;6.714;2023-03-01T03:31:40;9.65;;;8.75;;
38312;SDS011;24114;52.260;6.714;2023-03-01T03:34:09;9.27;;;8.30;;
38312;SDS011;24114;52.260;6.714;2023-03-01T03:36:44;9.37;;;8.47;;
38312;SDS011;24114;52.260;6.714;2023-03-01T03:39:11;9.70;;;8.70;;
38312;SDS011;24114;52.260;6.714;2023-03-01T03:41:39;8.80;;;8.00;;
38312;SDS011;24114;52.260;6.714;2023-03-01T03:44:07;9.85;;;8.52;;
38312;SDS011;24114;52.260;6.714;2023-03-01T03:46:34;10.20;;;9.20;;
38312;SDS011;24114;52.260;6.714;2023-03-01T03:49:02;9.98;;;8.98;;
38312;SDS011;24114;52.260;6.714;2023-03-01T03:51:31;9.98;;;8.98;;
38312;SDS011;24114;52.260;6.714;2023-03-01T03:53:59;10.15;;;9.07;;
38312;SDS011;24114;52.260;6.714;2023-03-01T03:56:27;9.77;;;8.88;;
38312;SDS011;24114;52.260;6.714;2023-03-01T03:58:55;9.90;;;8.90;;
38312;SDS011;24114;52.260;6.714;2023-03-01T04:01:23;9.95;;;9.05;;
38312;SDS011;24114;52.260;6.714;2023-03-01T04:03:51;10.30;;;9.30;;
38312;SDS011;24114;52.260;6.714;2023-03-01T04:06:20;10.80;;;9.70;;
38312;SDS011;24114;52.260;6.714;2023-03-01T04:08:49;11.00;;;9.90;;
38312;SDS011;24114;52.260;6.714;2023-03-01T04:11:26;10.77;;;9.68;;
38312;SDS011;24114;52.260;6.714;2023-03-01T04:13:54;11.73;;;10.20;;
38312;SDS011;24114;52.260;6.714;2023-03-01T04:16:23;12.77;;;10.52;;
38312;SDS011;24114;52.260;6.714;2023-03-01T04:18:51;13.70;;;10.82;;
38312;SDS011;24114;52.260;6.714;2023-03-01T04:21:24;18.38;;;12.70;;
38312;SDS011;24114;52.260;6.714;2023-03-01T04:23:53;13.25;;;10.35;;
38312;SDS011;24114;52.260;6.714;2023-03-01T04:26:21;19.08;;;12.70;;
38312;SDS011;24114;52.260;6.714;2023-03-01T04:28:48;21.10;;;14.37;;
38312;SDS011;24114;52.260;6.714;2023-03-01T04:31:17;23.48;;;15.20;;
38312;SDS011;24114;52.260;6.714;2023-03-01T04:33:48;37.55;;;21.08;;
38312;SDS011;24114;52.260;6.714;2023-03-01T04:36:18;56.03;;;29.80;;
38312;SDS011;24114;52.260;6.714;2023-03-01T04:38:47;51.10;;;27.88;;
38312;SDS011;24114;52.260;6.714;2023-03-01T04:41:18;35.70;;;21.88;;
38312;SDS011;24114;52.260;6.714;2023-03-01T04:43:46;33.80;;;19.67;;
38312;SDS011;24114;52.260;6.714;2023-03-01T04:46:16;27.52;;;17.35;;
38312;SDS011;24114;52.260;6.714;2023-03-01T04:48:45;25.80;;;17.45;;
38312;SDS011;24114;52.260;6.714;2023-03-01T04:51:14;24.52;;;15.95;;
38312;SDS011;24114;52.260;6.714;2023-03-01T04:53:42;15.93;;;12.48;;
38312;SDS011;24114;52.260;6.714;2023-03-01T04:56:10;16.15;;;12.73;;
38312;SDS011;24114;52.260;6.714;2023-03-01T04:58:41;19.63;;;13.95;;
38312;SDS011;24114;52.260;6.714;2023-03-01T05:01:09;18.47;;;12.63;;
38312;SDS011;24114;52.260;6.714;2023-03-01T05:03:41;15.20;;;12.25;;
38312;SDS011;24114;52.260;6.714;2023-03-01T05:06:10;14.85;;;11.27;;
38312;SDS011;24114;52.260;6.714;2023-03-01T05:08:38;11.55;;;10.05;;
38312;SDS011;24114;52.260;6.714;2023-03-01T05:11:07;11.23;;;10.13;;
38312;SDS011;24114;52.260;6.714;2023-03-01T05:13:35;10.20;;;9.18;;
38312;SDS011;24114;52.260;6.714;2023-03-01T05:16:06;10.60;;;9.50;;
38312;SDS011;24114;52.260;6.714;2023-03-01T05:18:38;9.93;;;8.93;;
38312;SDS011;24114;52.260;6.714;2023-03-01T05:21:07;9.52;;;8.63;;
38312;SDS011;24114;52.260;6.714;2023-03-01T05:23:36;11.05;;;9.88;;
38312;SDS011;24114;52.260;6.714;2023-03-01T05:26:04;10.05;;;9.05;;
38312;SDS011;24114;52.260;6.714;2023-03-01T05:28:47;10.95;;;8.80;;
38312;SDS011;24114;52.260;6.714;2023-03-01T05:31:17;9.68;;;8.70;;
38312;SDS011;24114;52.260;6.714;2023-03-01T05:33:45;9.80;;;8.80;;
38312;SDS011;24114;52.260;6.714;2023-03-01T05:36:13;9.73;;;8.82;;
38312;SDS011;24114;52.260;6.714;2023-03-01T05:38:40;9.98;;;8.98;;
38312;SDS011;24114;52.260;6.714;2023-03-01T05:41:13;10.10;;;9.13;;
38312;SDS011;24114;52.260;6.714;2023-03-01T05:43:41;10.65;;;9.65;;
38312;SDS011;24114;52.260;6.714;2023-03-01T05:46:11;10.50;;;9.40;;
38312;SDS011;24114;52.260;6.714;2023-03-01T05:48:41;10.98;;;9.57;;
38312;SDS011;24114;52.260;6.714;2023-03-01T05:51:08;9.80;;;8.90;;
38312;SDS011;24114;52.260;6.714;2023-03-01T05:53:36;13.75;;;9.77;;
38312;SDS011;24114;52.260;6.714;2023-03-01T05:56:04;10.43;;;9.43;;
38312;SDS011;24114;52.260;6.714;2023-03-01T05:58:33;9.48;;;8.55;;
38312;SDS011;24114;52.260;6.714;2023-03-01T06:01:00;11.07;;;9.32;;
38312;SDS011;24114;52.260;6.714;2023-03-01T06:03:28;10.73;;;9.15;;
38312;SDS011;24114;52.260;6.714;2023-03-01T06:05:57;12.77;;;9.32;;
38312;SDS011;24114;52.260;6.714;2023-03-01T06:08:25;10.00;;;9.00;;
38312;SDS011;24114;52.260;6.714;2023-03-01T06:10:53;9.80;;;8.90;;
38312;SDS011;24114;52.260;6.714;2023-03-01T06:13:22;10.52;;;9.38;;
38312;SDS011;24114;52.260;6.714;2023-03-01T06:15:50;9.53;;;8.53;;
38312;SDS011;24114;52.260;6.714;2023-03-01T06:18:18;10.37;;;9.27;;
38312;SDS011;24114;52.260;6.714;2023-03-01T06:20:51;9.90;;;8.90;;
38312;SDS011;24114;52.260;6.714;2023-03-01T06:23:22;11.20;;;9.90;;
38312;SDS011;24114;52.260;6.714;2023-03-01T06:25:50;10.15;;;9.02;;
38312;SDS011;24114;52.260;6.714;2023-03-01T06:28:18;10.37;;;8.93;;
38312;SDS011;24114;52.260;6.714;2023-03-01T06:30:45;9.87;;;8.93;;
38312;SDS011;24114;52.260;6.714;2023-03-01T06:33:13;10.75;;;9.57;;
38312;SDS011;24114;52.260;6.714;2023-03-01T06:35:41;10.57;;;9.57;;
38312;SDS011;24114;52.260;6.714;2023-03-01T06:38:09;10.00;;;9.00;;
38312;SDS011;24114;52.260;6.714;2023-03-01T06:40:38;9.45;;;8.60;;
38312;SDS011;24114;52.260;6.714;2023-03-01T06:43:06;9.95;;;8.93;;
38312;SDS011;24114;52.260;6.714;2023-03-01T06:45:34;10.07;;;8.98;;
38312;SDS011;24114;52.260;6.714;2023-03-01T06:48:02;10.32;;;9.32;;
38312;SDS011;24114;52.260;6.714;2023-03-01T06:50:31;15.50;;;14.00;;
38312;SDS011;24114;52.260;6.714;2023-03-01T06:52:59;15.37;;;13.80;;
38312;SDS011;24114;52.260;6.714;2023-03-01T06:55:27;17.20;;;15.40;;
38312;SDS011;24114;52.260;6.714;2023-03-01T06:57:56;20.42;;;18.33;;
38312;SDS011;24114;52.260;6.714;2023-03-01T07:00:24;23.42;;;21.05;;
38312;SDS011;24114;52.260;6.714;2023-03-01T07:02:53;16.63;;;14.93;;
38312;SDS011;24114;52.260;6.714;2023-03-01T07:05:21;14.35;;;12.93;;
38312;SDS011;24114;52.260;6.714;2023-03-01T07:07:49;13.73;;;12.25;;
38312;SDS011;24114;52.260;6.714;2023-03-01T07:10:17;12.10;;;10.77;;
38312;SDS011;24114;52.260;6.714;2023-03-01T07:12:45;11.23;;;10.10;;
38312;SDS011;24114;52.260;6.714;2023-03-01T07:15:14;11.13;;;10.00;;
38312;SDS011;24114;52.260;6.714;2023-03-01T07:17:42;11.07;;;9.98;;
38312;SDS011;24114;52.260;6.714;2023-03-01T07:20:11;11.90;;;10.07;;
38312;SDS011;24114;52.260;6.714;2023-03-01T07:22:39;10.50;;;9.40;;
38312;SDS011;24114;52.260;6.714;2023-03-01T07:25:08;11.27;;;10.27;;
38312;SDS011;24114;52.260;6.714;2023-03-01T07:27:36;11.18;;;10.07;;
38312;SDS011;24114;52.260;6.714;2023-03-01T07:30:05;10.40;;;9.30;;
38312;SDS011;24114;52.260;6.714;2023-03-01T07:32:35;11.85;;;10.10;;
38312;SDS011;24114;52.260;6.714;2023-03-01T07:35:03;11.33;;;9.50;;
38312;SDS011;24114;52.260;6.714;2023-03-01T07:37:31;10.50;;;9.48;;
38312;SDS011;24114;52.260;6.714;2023-03-01T07:39:59;9.05;;;8.15;;
38312;SDS011;24114;52.260;6.714;2023-03-01T07:42:26;10.07;;;8.57;;
38312;SDS011;24114;52.260;6.714;2023-03-01T07:44:54;9.65;;;8.45;;
38312;SDS011;24114;52.260;6.714;2023-03-01T07:47:22;9.75;;;8.60;;
38312;SDS011;24114;52.260;6.714;2023-03-01T07:49:51;8.98;;;8.07;;
38312;SDS011;24114;52.260;6.714;2023-03-01T07:52:19;9.80;;;8.80;;
38312;SDS011;24114;52.260;6.714;2023-03-01T07:54:46;9.10;;;8.20;;
38312;SDS011;24114;52.260;6.714;2023-03-01T07:57:14;8.95;;;8.10;;
38312;SDS011;24114;52.260;6.714;2023-03-01T07:59:42;9.15;;;8.25;;
38312;SDS011;24114;52.260;6.714;2023-03-01T08:02:10;9.20;;;8.18;;
38312;SDS011;24114;52.260;6.714;2023-03-01T08:04:38;9.57;;;8.30;;
38312;SDS011;24114;52.260;6.714;2023-03-01T08:07:07;9.63;;;8.48;;
38312;SDS011;24114;52.260;6.714;2023-03-01T08:09:34;9.80;;;8.80;;
38312;SDS011;24114;52.260;6.714;2023-03-01T08:12:03;9.63;;;8.63;;
38312;SDS011;24114;52.260;6.714;2023-03-01T08:14:31;10.40;;;8.93;;
38312;SDS011;24114;52.260;6.714;2023-03-01T08:16:59;9.32;;;8.43;;
38312;SDS011;24114;52.260;6.714;2023-03-01T08:19:29;9.95;;;8.95;;
38312;SDS011;24114;52.260;6.714;2023-03-01T08:21:57;11.45;;;8.88;;
38312;SDS011;24114;52.260;6.714;2023-03-01T08:24:27;9.00;;;8.05;;
38312;SDS011;24114;52.260;6.714;2023-03-01T08:26:55;9.05;;;8.15;;
38312;SDS011;24114;52.260;6.714;2023-03-01T08:29:23;9.43;;;8.52;;
38312;SDS011;24114;52.260;6.714;2023-03-01T08:31:51;8.35;;;7.55;;
38312;SDS011;24114;52.260;6.714;2023-03-01T08:34:19;9.18;;;8.27;;
38312;SDS011;24114;52.260;6.714;2023-03-01T08:36:47;9.18;;;8.13;;
38312;SDS011;24114;52.260;6.714;2023-03-01T08:39:16;8.45;;;7.60;;
38312;SDS011;24114;52.260;6.714;2023-03-01T08:41:47;9.00;;;8.07;;
38312;SDS011;24114;52.260;6.714;2023-03-01T08:44:15;9.77;;;7.20;;
38312;SDS011;24114;52.260;6.714;2023-03-01T08:46:44;8.13;;;7.30;;
38312;SDS011;24114;52.260;6.714;2023-03-01T08:49:13;8.23;;;7.10;;
38312;SDS011;24114;52.260;6.714;2023-03-01T08:51:42;8.40;;;7.43;;
38312;SDS011;24114;52.260;6.714;2023-03-01T08:54:11;7.70;;;6.90;;
38312;SDS011;24114;52.260;6.714;2023-03-01T08:56:39;7.75;;;6.95;;
38312;SDS011;24114;52.260;6.714;2023-03-01T08:59:08;7.33;;;6.63;;
38312;SDS011;24114;52.260;6.714;2023-03-01T09:01:36;7.55;;;6.75;;
38312;SDS011;24114;52.260;6.714;2023-03-01T09:04:04;7.18;;;6.47;;
38312;SDS011;24114;52.260;6.714;2023-03-01T09:06:32;6.70;;;6.00;;
38312;SDS011;24114;52.260;6.714;2023-03-01T09:09:00;7.47;;;6.63;;
38312;SDS011;24114;52.260;6.714;2023-03-01T09:11:29;7.70;;;6.28;;
38312;SDS011;24114;52.260;6.714;2023-03-01T09:13:56;8.23;;;6.32;;
38312;SDS011;24114;52.260;6.714;2023-03-01T09:16:25;7.38;;;6.25;;
38312;SDS011;24114;52.260;6.714;2023-03-01T09:18:54;6.65;;;6.00;;
38312;SDS011;24114;52.260;6.714;2023-03-01T09:21:22;6.15;;;5.55;;
38312;SDS011;24114;52.260;6.714;2023-03-01T09:24:05;6.55;;;5.88;;
38312;SDS011;24114;52.260;6.714;2023-03-01T09:26:34;7.47;;;6.28;;
38312;SDS011;24114;52.260;6.714;2023-03-01T09:29:01;7.30;;;6.18;;
38312;SDS011;24114;52.260;6.714;2023-03-01T09:31:31;6.57;;;5.88;;
38312;SDS011;24114;52.260;6.714;2023-03-01T09:33:58;6.93;;;5.47;;
38312;SDS011;24114;52.260;6.714;2023-03-01T09:36:26;5.85;;;5.25;;
38312;SDS011;24114;52.260;6.714;2023-03-01T09:38:55;7.93;;;6.18;;
38312;SDS011;24114;52.260;6.714;2023-03-01T09:41:38;7.38;;;5.32;;
38312;SDS011;24114;52.260;6.714;2023-03-01T09:44:16;6.57;;;5.20;;
38312;SDS011;24114;52.260;6.714;2023-03-01T09:46:50;4.60;;;4.10;;
38312;SDS011;24114;52.260;6.714;2023-03-01T09:49:19;4.93;;;4.45;;
38312;SDS011;24114;52.260;6.714;2023-03-01T09:51:54;5.75;;;4.63;;
38312;SDS011;24114;52.260;6.714;2023-03-01T09:54:23;5.57;;;4.55;;
38312;SDS011;24114;52.260;6.714;2023-03-01T09:56:53;5.43;;;4.93;;
38312;SDS011;24114;52.260;6.714;2023-03-01T09:59:28;5.57;;;4.85;;
38312;SDS011;24114;52.260;6.714;2023-03-01T10:02:05;4.93;;;4.40;;
38312;SDS011;24114;52.260;6.714;2023-03-01T10:04:45;5.10;;;4.60;;
38312;SDS011;24114;52.260;6.714;2023-03-01T10:07:17;4.10;;;3.70;;
38312;SDS011;24114;52.260;6.714;2023-03-01T10:09:49;4.57;;;3.70;;
38312;SDS011;24114;52.260;6.714;2023-03-01T10:12:18;5.20;;;3.50;;
38312;SDS011;24114;52.260;6.714;2023-03-01T10:14:51;4.13;;;3.58;;
38312;SDS011;24114;52.260;6.714;2023-03-01T10:17:30;4.13;;;3.58;;
38312;SDS011;24114;52.260;6.714;2023-03-01T10:20:10;5.60;;;4.13;;
38312;SDS011;24114;52.260;6.714;2023-03-01T10:22:43;4.38;;;3.67;;
38312;SDS011;24114;52.260;6.714;2023-03-01T10:25:17;4.45;;;3.78;;
38312;SDS011;24114;52.260;6.714;2023-03-01T10:27:51;4.53;;;4.07;;
38312;SDS011;24114;52.260;6.714;2023-03-01T10:30:20;5.07;;;4.00;;
38312;SDS011;24114;52.260;6.714;2023-03-01T10:32:52;4.60;;;4.07;;
38312;SDS011;24114;52.260;6.714;2023-03-01T10:35:21;5.18;;;3.88;;
38312;SDS011;24114;52.260;6.714;2023-03-01T10:37:57;5.88;;;4.55;;
38312;SDS011;24114;52.260;6.714;2023-03-01T10:40:25;4.80;;;4.30;;
38312;SDS011;24114;52.260;6.714;2023-03-01T10:42:53;5.25;;;4.30;;
38312;SDS011;24114;52.260;6.714;2023-03-01T10:45:32;4.53;;;3.95;;
38312;SDS011;24114;52.260;6.714;2023-03-01T10:48:04;4.50;;;4.10;;
38312;SDS011;24114;52.260;6.714;2023-03-01T10:50:33;5.38;;;4.30;;
38312;SDS011;24114;52.260;6.714;2023-03-01T10:53:05;4.63;;;4.18;;
38312;SDS011;24114;52.260;6.714;2023-03-01T10:55:47;4.65;;;3.97;;
38312;SDS011;24114;52.260;6.714;2023-03-01T10:58:24;4.68;;;4.18;;
38312;SDS011;24114;52.260;6.714;2023-03-01T11:00:52;4.40;;;4.00;;
38312;SDS011;24114;52.260;6.714;2023-03-01T11:03:23;5.17;;;4.10;;
38312;SDS011;24114;52.260;6.714;2023-03-01T11:06:00;5.13;;;4.28;;
38312;SDS011;24114;52.260;6.714;2023-03-01T11:08:31;4.27;;;3.83;;
38312;SDS011;24114;52.260;6.714;2023-03-01T11:11:04;5.82;;;4.13;;
38312;SDS011;24114;52.260;6.714;2023-03-01T11:13:51;5.72;;;4.20;;
38312;SDS011;24114;52.260;6.714;2023-03-01T11:16:24;4.80;;;4.25;;
38312;SDS011;24114;52.260;6.714;2023-03-01T11:19:00;4.45;;;4.05;;
38312;SDS011;24114;52.260;6.714;2023-03-01T11:24:39;6.55;;;4.22;;
38312;SDS011;24114;52.260;6.714;2023-03-01T11:27:13;5.50;;;4.32;;
38312;SDS011;24114;52.260;6.714;2023-03-01T11:29:44;5.10;;;4.00;;
38312;SDS011;24114;52.260;6.714;2023-03-01T11:32:17;4.50;;;4.03;;
38312;SDS011;24114;52.260;6.714;2023-03-01T11:34:49;4.53;;;3.90;;
38312;SDS011;24114;52.260;6.714;2023-03-01T11:37:22;5.07;;;3.90;;
38312;SDS011;24114;52.260;6.714;2023-03-01T11:39:58;5.78;;;4.00;;
38312;SDS011;24114;52.260;6.714;2023-03-01T11:42:37;5.38;;;3.80;;
38312;SDS011;24114;52.260;6.714;2023-03-01T11:45:11;4.50;;;4.00;;
38312;SDS011;24114;52.260;6.714;2023-03-01T11:47:46;4.55;;;4.15;;
38312;SDS011;24114;52.260;6.714;2023-03-01T11:50:35;7.53;;;6.30;;
38312;SDS011;24114;52.260;6.714;2023-03-01T11:56:03;4.78;;;4.25;;
38312;SDS011;24114;52.260;6.714;2023-03-01T11:58:40;4.30;;;3.70;;
38312;SDS011;24114;52.260;6.714;2023-03-01T12:01:22;3.60;;;3.22;;
38312;SDS011;24114;52.260;6.714;2023-03-01T12:04:01;4.18;;;3.42;;
38312;SDS011;24114;52.260;6.714;2023-03-01T12:06:52;5.03;;;3.45;;
38312;SDS011;24114;52.260;6.714;2023-03-01T12:09:42;6.05;;;4.60;;
38312;SDS011;24114;52.260;6.714;2023-03-01T12:12:26;4.45;;;3.65;;
38312;SDS011;24114;52.260;6.714;2023-03-01T12:15:04;4.22;;;3.83;;
38312;SDS011;24114;52.260;6.714;2023-03-01T12:17:48;4.53;;;3.38;;
38312;SDS011;24114;52.260;6.714;2023-03-01T12:20:38;3.90;;;3.50;;
38312;SDS011;24114;52.260;6.714;2023-03-01T12:23:19;4.13;;;3.70;;
38312;SDS011;24114;52.260;6.714;2023-03-01T12:25:53;3.93;;;3.43;;
38312;SDS011;24114;52.260;6.714;2023-03-01T12:28:33;3.80;;;3.40;;
38312;SDS011;24114;52.260;6.714;2023-03-01T12:31:14;4.50;;;3.35;;
38312;SDS011;24114;52.260;6.714;2023-03-01T12:34:01;4.47;;;3.95;;
38312;SDS011;24114;52.260;6.714;2023-03-01T12:36:55;49.00;;;21.77;;
38312;SDS011;24114;52.260;6.714;2023-03-01T12:39:33;24.10;;;13.05;;
38312;SDS011;24114;52.260;6.714;2023-03-01T12:42:10;4.50;;;3.88;;
38312;SDS011;24114;52.260;6.714;2023-03-01T12:44:44;40.77;;;21.70;;
38312;SDS011;24114;52.260;6.714;2023-03-01T12:47:26;4.20;;;3.50;;
38312;SDS011;24114;52.260;6.714;2023-03-01T12:50:04;4.13;;;3.27;;
38312;SDS011;24114;52.260;6.714;2023-03-01T12:52:38;5.25;;;3.47;;
38312;SDS011;24114;52.260;6.714;2023-03-01T12:57:55;4.60;;;3.42;;
38312;SDS011;24114;52.260;6.714;2023-03-01T13:00:28;4.20;;;2.78;;
38312;SDS011;24114;52.260;6.714;2023-03-01T13:03:00;3.28;;;2.63;;
38312;SDS011;24114;52.260;6.714;2023-03-01T13:05:36;3.65;;;2.72;;
38312;SDS011;24114;52.260;6.714;2023-03-01T13:08:08;4.22;;;3.13;;
38312;SDS011;24114;52.260;6.714;2023-03-01T13:10:42;3.20;;;2.67;;
38312;SDS011;24114;52.260;6.714;2023-03-01T13:13:13;2.92;;;2.45;;
38312;SDS011;24114;52.260;6.714;2023-03-01T13:15:46;4.15;;;3.00;;
38312;SDS011;24114;52.260;6.714;2023-03-01T13:18:28;4.13;;;3.17;;
38312;SDS011;24114;52.260;6.714;2023-03-01T13:20:59;6.75;;;3.78;;
38312;SDS011;24114;52.260;6.714;2023-03-01T13:23:30;2.92;;;2.53;;
38312;SDS011;24114;52.260;6.714;2023-03-01T13:26:05;3.97;;;2.75;;
38312;SDS011;24114;52.260;6.714;2023-03-01T13:28:48;3.95;;;2.40;;
38312;SDS011;24114;52.260;6.714;2023-03-01T13:37:36;3.55;;;2.30;;
38312;SDS011;24114;52.260;6.714;2023-03-01T13:40:56;3.35;;;2.20;;
38312;SDS011;24114;52.260;6.714;2023-03-01T13:43:28;2.50;;;2.28;;
38312;SDS011;24114;52.260;6.714;2023-03-01T13:45:57;3.58;;;2.28;;
38312;SDS011;24114;52.260;6.714;2023-03-01T13:48:26;3.22;;;2.55;;
38312;SDS011;24114;52.260;6.714;2023-03-01T13:50:57;3.78;;;2.67;;
38312;SDS011;24114;52.260;6.714;2023-03-01T13:53:29;4.00;;;2.20;;
38312;SDS011;24114;52.260;6.714;2023-03-01T13:56:00;3.33;;;2.33;;
38312;SDS011;24114;52.260;6.714;2023-03-01T13:58:29;3.38;;;2.83;;
38312;SDS011;24114;52.260;6.714;2023-03-01T14:00:59;2.95;;;2.40;;
38312;SDS011;24114;52.260;6.714;2023-03-01T14:03:28;2.75;;;2.10;;
38312;SDS011;24114;52.260;6.714;2023-03-01T14:05:58;2.47;;;2.27;;
38312;SDS011;24114;52.260;6.714;2023-03-01T14:08:40;2.67;;;2.43;;
38312;SDS011;24114;52.260;6.714;2023-03-01T14:14:29;4.65;;;2.42;;
38312;SDS011;24114;52.260;6.714;2023-03-01T14:19:54;2.30;;;2.10;;
38312;SDS011;24114;52.260;6.714;2023-03-01T14:22:24;2.70;;;2.17;;
38312;SDS011;24114;52.260;6.714;2023-03-01T14:24:56;2.58;;;2.20;;
38312;SDS011;24114;52.260;6.714;2023-03-01T14:27:25;4.32;;;2.40;;
38312;SDS011;24114;52.260;6.714;2023-03-01T14:30:03;3.00;;;2.60;;
38312;SDS011;24114;52.260;6.714;2023-03-01T14:32:38;3.42;;;2.47;;
38312;SDS011;24114;52.260;6.714;2023-03-01T14:35:18;3.45;;;2.40;;
38312;SDS011;24114;52.260;6.714;2023-03-01T14:37:47;3.40;;;2.35;;
38312;SDS011;24114;52.260;6.714;2023-03-01T14:40:27;3.03;;;2.73;;
38312;SDS011;24114;52.260;6.714;2023-03-01T14:45:24;2.47;;;2.08;;
38312;SDS011;24114;52.260;6.714;2023-03-01T14:47:53;3.53;;;2.80;;
38312;SDS011;24114;52.260;6.714;2023-03-01T14:50:23;5.25;;;3.00;;
38312;SDS011;24114;52.260;6.714;2023-03-01T14:52:53;3.15;;;2.70;;
38312;SDS011;24114;52.260;6.714;2023-03-01T14:55:26;5.65;;;2.60;;
38312;SDS011;24114;52.260;6.714;2023-03-01T14:57:56;3.33;;;1.88;;
38312;SDS011;24114;52.260;6.714;2023-03-01T15:00:28;2.67;;;2.30;;
38312;SDS011;24114;52.260;6.714;2023-03-01T15:02:58;2.70;;;2.28;;
38312;SDS011;24114;52.260;6.714;2023-03-01T15:05:30;2.97;;;2.30;;
38312;SDS011;24114;52.260;6.714;2023-03-01T15:07:59;2.28;;;2.03;;
38312;SDS011;24114;52.260;6.714;2023-03-01T15:10:30;2.33;;;1.98;;
38312;SDS011;24114;52.260;6.714;2023-03-01T15:13:09;4.20;;;2.42;;
38312;SDS011;24114;52.260;6.714;2023-03-01T15:15:38;2.42;;;1.90;;
38312;SDS011;24114;52.260;6.714;2023-03-01T15:18:13;3.38;;;2.40;;
38312;SDS011;24114;52.260;6.714;2023-03-01T15:20:43;2.58;;;2.25;;
38312;SDS011;24114;52.260;6.714;2023-03-01T15:23:22;2.38;;;1.92;;
38312;SDS011;24114;52.260;6.714;2023-03-01T15:25:52;2.53;;;2.17;;
38312;SDS011;24114;52.260;6.714;2023-03-01T15:28:24;2.55;;;2.00;;